createdAt,value
2018-06-16T00:00:20.881Z,12.83
2018-06-16T00:05:13.789Z,14.93
2018-06-16T00:10:06.739Z,14.53
2018-06-16T00:14:59.661Z,12.87
2018-06-16T00:19:52.502Z,12.70
2018-06-16T00:24:45.416Z,13.20
2018-06-16T00:29:38.311Z,11.90
2018-06-16T00:34:31.287Z,13.50
2018-06-16T00:39:24.133Z,14.80
2018-06-16T00:44:17.069Z,13.23
2018-06-16T00:49:10.257Z,13.57
2018-06-16T00:54:03.146Z,13.00
2018-06-16T00:58:56.035Z,13.10
2018-06-16T01:03:48.957Z,13.60
2018-06-16T01:08:41.787Z,12.10
2018-06-16T01:13:34.665Z,14.70
2018-06-16T01:18:27.628Z,14.07
2018-06-16T01:23:20.566Z,12.20
2018-06-16T01:28:13.443Z,13.37
2018-06-16T01:33:06.274Z,14.90
2018-06-16T01:37:59.141Z,11.43
2018-06-16T01:42:52.005Z,11.33
2018-06-16T01:47:44.872Z,11.10
2018-06-16T01:52:37.741Z,14.23
2018-06-16T01:57:30.563Z,12.63
2018-06-16T02:02:23.438Z,11.10
2018-06-16T02:07:16.341Z,11.37
2018-06-16T02:12:09.202Z,11.43
2018-06-16T02:17:02.080Z,11.53
2018-06-16T02:21:54.930Z,11.40
2018-06-16T02:26:47.731Z,11.53
2018-06-16T02:31:40.646Z,16.00
2018-06-16T02:36:33.431Z,10.23
2018-06-16T02:41:26.312Z,10.77
2018-06-16T02:46:19.220Z,11.00
2018-06-16T02:51:12.087Z,10.03
2018-06-16T02:56:05.026Z,11.07
2018-06-16T03:00:57.914Z,10.73
2018-06-16T03:05:50.725Z,12.80
2018-06-16T03:10:43.587Z,14.50
2018-06-16T03:15:36.641Z,11.20
2018-06-16T03:20:29.641Z,13.10
2018-06-16T03:25:22.486Z,10.77
2018-06-16T03:30:15.372Z,13.30
2018-06-16T03:35:08.243Z,11.47
2018-06-16T03:40:01.079Z,10.80
2018-06-16T03:44:53.956Z,9.63
2018-06-16T03:49:46.801Z,11.73
2018-06-16T03:54:39.637Z,9.57
2018-06-16T03:59:32.502Z,12.50
2018-06-16T04:04:25.327Z,10.93
2018-06-16T04:09:18.198Z,11.23
2018-06-16T04:14:11.085Z,11.23
2018-06-16T04:19:04.011Z,11.60
2018-06-16T04:23:56.855Z,15.67
2018-06-16T04:28:49.713Z,12.70
2018-06-16T04:33:42.600Z,12.90
2018-06-16T04:38:35.504Z,14.37
2018-06-16T04:43:28.303Z,12.77
2018-06-16T04:48:21.111Z,12.83
2018-06-16T04:53:14.042Z,13.73
2018-06-16T04:58:06.946Z,15.93
2018-06-16T05:02:59.906Z,15.97
2018-06-16T05:07:52.734Z,13.67
2018-06-16T05:12:45.629Z,13.90
2018-06-16T05:17:38.517Z,13.57
2018-06-16T05:22:31.371Z,13.17
2018-06-16T05:27:24.289Z,15.93
2018-06-16T05:32:17.194Z,15.27
2018-06-16T05:37:10.003Z,12.97
2018-06-16T05:42:02.947Z,15.37
2018-06-16T05:46:55.842Z,12.80
2018-06-16T05:51:48.663Z,14.77
2018-06-16T05:56:41.594Z,13.40
2018-06-16T06:01:34.472Z,13.70
2018-06-16T06:06:27.441Z,13.00
2018-06-16T06:11:20.281Z,13.30
2018-06-16T06:16:13.221Z,14.10
2018-06-16T06:21:06.198Z,14.67
2018-06-16T06:25:59.101Z,12.70
2018-06-16T06:30:52.001Z,14.37
2018-06-16T06:35:44.909Z,11.50
2018-06-16T06:40:37.834Z,13.43
2018-06-16T06:45:30.808Z,13.30
2018-06-16T06:50:23.707Z,11.77
2018-06-16T06:55:16.574Z,14.00
2018-06-16T07:00:09.451Z,12.63
2018-06-16T07:05:02.337Z,11.90
2018-06-16T07:09:55.309Z,13.07
2018-06-16T07:14:48.209Z,13.17
2018-06-16T07:19:41.123Z,18.67
2018-06-16T07:24:34.052Z,17.00
2018-06-16T07:29:26.951Z,12.43
2018-06-16T07:34:19.819Z,9.67
2018-06-16T07:39:12.695Z,9.27
2018-06-16T07:44:05.717Z,9.77
2018-06-16T07:48:58.637Z,9.70
2018-06-16T07:53:51.521Z,11.20
2018-06-16T07:58:44.380Z,9.23
2018-06-16T08:03:37.297Z,9.60
2018-06-16T08:08:30.116Z,9.40
2018-06-16T08:13:22.945Z,8.60
2018-06-16T08:18:15.774Z,9.10
2018-06-16T08:23:08.584Z,8.63
2018-06-16T08:28:01.482Z,10.77
2018-06-16T08:32:54.294Z,12.33
2018-06-16T08:37:47.169Z,10.63
2018-06-16T08:42:40.279Z,10.50
2018-06-16T08:47:33.089Z,10.03
2018-06-16T08:52:25.939Z,10.37
2018-06-16T08:57:18.874Z,12.00
2018-06-16T09:02:11.797Z,8.97
2018-06-16T09:07:04.728Z,9.80
2018-06-16T09:11:57.663Z,12.07
2018-06-16T09:16:50.489Z,11.87
2018-06-16T09:21:43.473Z,10.57
2018-06-16T09:26:36.420Z,16.23
2018-06-16T09:31:29.268Z,10.90
2018-06-16T09:36:22.133Z,13.03
2018-06-16T09:41:15.066Z,11.77
2018-06-16T09:46:08.031Z,11.10
2018-06-16T09:51:01.022Z,9.57
2018-06-16T09:55:54.098Z,9.60
2018-06-16T10:00:47.261Z,9.73
2018-06-16T10:05:40.250Z,9.03
2018-06-16T10:10:33.156Z,8.73
2018-06-16T10:15:26.118Z,8.77
2018-06-16T10:20:19.271Z,8.60
2018-06-16T10:25:12.183Z,8.93
2018-06-16T10:30:05.159Z,6.73
2018-06-16T10:34:58.018Z,7.77
2018-06-16T10:39:50.959Z,6.23
2018-06-16T10:44:43.769Z,8.50
2018-06-16T10:49:36.652Z,11.40
2018-06-16T10:54:29.547Z,7.00
2018-06-16T10:59:22.414Z,6.63
2018-06-16T11:04:15.330Z,5.73
2018-06-16T11:09:09.317Z,7.73
2018-06-16T11:14:02.171Z,6.37
2018-06-16T11:18:55.000Z,6.33
2018-06-16T11:23:47.889Z,5.57
2018-06-16T11:28:40.768Z,6.37
2018-06-16T11:33:33.618Z,6.33
2018-06-16T11:38:26.438Z,5.23
2018-06-16T11:43:19.265Z,4.30
2018-06-16T11:48:12.117Z,5.17
2018-06-16T11:53:05.026Z,4.80
2018-06-16T11:57:57.888Z,3.77
2018-06-16T12:02:50.820Z,3.50
2018-06-16T12:07:43.833Z,4.07
2018-06-16T12:12:36.747Z,6.07
2018-06-16T12:17:29.566Z,5.67
2018-06-16T12:22:22.445Z,4.97
2018-06-16T12:27:15.293Z,5.07
2018-06-16T12:32:08.238Z,5.07
2018-06-16T12:37:01.167Z,4.60
2018-06-16T12:41:53.994Z,5.47
2018-06-16T12:46:46.891Z,6.00
2018-06-16T12:51:39.681Z,5.30
2018-06-16T12:56:32.571Z,5.77
2018-06-16T13:01:25.459Z,5.30
2018-06-16T13:06:18.356Z,8.87
2018-06-16T13:11:11.766Z,6.80
2018-06-16T13:16:04.961Z,6.40
2018-06-16T13:20:57.801Z,8.40
2018-06-16T13:25:50.615Z,6.70
2018-06-16T13:30:43.561Z,7.17
2018-06-16T13:35:36.432Z,7.37
2018-06-16T13:40:29.329Z,9.33
2018-06-16T13:45:22.152Z,7.37
2018-06-16T13:50:14.980Z,8.63
2018-06-16T13:55:07.809Z,7.73
2018-06-16T14:00:00.672Z,8.80
2018-06-16T14:04:53.660Z,10.37
2018-06-16T14:09:46.589Z,7.80
2018-06-16T14:14:39.512Z,8.33
2018-06-16T14:19:32.378Z,10.30
2018-06-16T14:24:25.217Z,9.50
2018-06-16T14:29:18.108Z,7.83
2018-06-16T14:34:10.935Z,8.97
2018-06-16T14:39:05.682Z,7.57
2018-06-16T14:43:58.559Z,7.27
2018-06-16T14:48:51.444Z,8.03
2018-06-16T14:53:44.345Z,9.10
2018-06-16T14:58:37.358Z,7.07
2018-06-16T15:03:30.320Z,7.20
2018-06-16T15:08:23.221Z,8.33
2018-06-16T15:13:16.138Z,8.33
2018-06-16T15:18:09.555Z,7.10
2018-06-16T15:23:02.495Z,7.10
2018-06-16T15:27:55.385Z,6.57
2018-06-16T15:32:48.313Z,10.27
2018-06-16T15:37:41.238Z,6.33
2018-06-16T15:42:34.248Z,10.73
2018-06-16T15:47:27.027Z,7.80
2018-06-16T15:52:19.848Z,7.13
2018-06-16T15:57:12.796Z,7.53
2018-06-16T16:02:05.720Z,7.17
2018-06-16T16:06:58.553Z,7.53
2018-06-16T16:11:51.309Z,7.10
2018-06-16T16:16:44.146Z,8.20
2018-06-16T16:21:37.050Z,7.10
2018-06-16T16:26:29.909Z,8.37
2018-06-16T16:31:22.881Z,11.20
2018-06-16T16:36:15.733Z,11.23
2018-06-16T16:41:08.696Z,8.40
2018-06-16T16:46:01.564Z,7.63
2018-06-16T16:50:54.474Z,9.63
2018-06-16T16:55:47.333Z,10.30
2018-06-16T17:00:40.248Z,8.67
2018-06-16T17:05:33.105Z,11.00
2018-06-16T17:10:25.950Z,7.40
2018-06-16T17:15:18.868Z,7.67
2018-06-16T17:20:11.856Z,7.70
2018-06-16T17:25:04.881Z,7.80
2018-06-16T17:29:57.819Z,8.73
2018-06-16T17:34:50.749Z,9.70
2018-06-16T17:39:43.682Z,8.10
2018-06-16T17:44:36.748Z,7.47
2018-06-16T17:49:29.682Z,6.60
2018-06-16T17:54:22.617Z,7.53
2018-06-16T17:59:15.561Z,7.93
2018-06-16T18:04:08.450Z,9.13
2018-06-16T18:09:01.311Z,11.10
2018-06-16T18:13:54.298Z,7.70
2018-06-16T18:18:47.184Z,11.60
2018-06-16T18:23:40.113Z,10.90
2018-06-16T18:28:33.449Z,7.73
2018-06-16T18:33:26.336Z,8.17
2018-06-16T18:38:19.937Z,8.20
2018-06-16T18:43:12.852Z,10.63
2018-06-16T18:48:05.797Z,7.70
2018-06-16T18:52:58.692Z,10.60
2018-06-16T18:57:51.601Z,11.33
2018-06-16T19:02:44.453Z,8.00
2018-06-16T19:07:37.497Z,12.37
2018-06-16T19:12:30.444Z,9.47
2018-06-16T19:17:23.429Z,9.97
2018-06-16T19:22:16.302Z,12.13
2018-06-16T19:27:09.147Z,8.97
2018-06-16T19:32:02.078Z,9.63
2018-06-16T19:36:54.989Z,10.57
2018-06-16T19:41:47.888Z,10.97
2018-06-16T19:46:40.829Z,10.53
2018-06-16T19:51:33.832Z,11.20
2018-06-16T19:56:26.737Z,11.70
2018-06-16T20:01:19.724Z,10.77
2018-06-16T20:06:12.591Z,13.43
2018-06-16T20:11:05.436Z,10.50
2018-06-16T20:15:58.212Z,13.97
2018-06-16T20:20:51.081Z,11.13
2018-06-16T20:25:43.992Z,10.70
2018-06-16T20:30:36.885Z,14.90
2018-06-16T20:35:29.854Z,10.67
2018-06-16T20:40:22.730Z,10.93
2018-06-16T20:45:15.638Z,13.40
2018-06-16T20:50:08.487Z,15.37
2018-06-16T20:55:01.462Z,12.57
2018-06-16T20:59:54.388Z,14.47
2018-06-16T21:04:47.258Z,13.57
2018-06-16T21:09:40.186Z,16.73
2018-06-16T21:14:33.088Z,11.77
2018-06-16T21:19:25.961Z,12.40
2018-06-16T21:24:18.840Z,11.17
2018-06-16T21:29:11.827Z,11.73
2018-06-16T21:34:04.782Z,11.37
2018-06-16T21:38:57.860Z,11.60
2018-06-16T21:43:50.707Z,11.07
2018-06-16T21:48:43.629Z,11.03
2018-06-16T21:53:36.584Z,17.17
2018-06-16T21:58:30.382Z,16.50
2018-06-16T22:03:23.265Z,16.50
2018-06-16T22:08:24.632Z,15.93
2018-06-16T22:13:17.550Z,13.43
2018-06-16T22:18:10.617Z,12.67
2018-06-16T22:23:03.554Z,12.30
2018-06-16T22:27:56.497Z,14.20
2018-06-16T22:32:49.383Z,12.77
2018-06-16T22:37:42.618Z,12.40
2018-06-16T22:42:35.480Z,13.37
2018-06-16T22:47:28.356Z,14.73
2018-06-16T22:57:20.908Z,11.53
2018-06-16T23:02:13.847Z,12.43
2018-06-16T23:07:06.989Z,11.70
2018-06-16T23:11:59.902Z,13.50
2018-06-16T23:16:52.723Z,15.30
2018-06-16T23:21:45.609Z,12.63
2018-06-16T23:26:38.535Z,12.13
2018-06-16T23:31:31.475Z,11.23
2018-06-16T23:36:24.377Z,16.33
2018-06-16T23:41:17.248Z,15.87
2018-06-16T23:46:10.209Z,12.03
2018-06-16T23:51:03.084Z,11.23
2018-06-16T23:55:55.969Z,12.87
